Time;durP1;ratioP1;P1;durP2;ratioP2;P2;SDS_P1;SDS_P2;PMS_P1;PMS_P2;Temp;Humidity;BMP_temperature;BMP_pressure;BME280_temperature;BME280_humidity;BME280_pressure;Samples;Min_cycle;Max_cycle;Signal;HPM_P1;HPM_P2
2022/04/02 00:00:56;;;;;;;0.20;0.20;;;1.80;99.90;;;;;;4985764;28;20299;-84
2022/04/02 00:03:22;;;;;;;0.30;0.30;;;1.70;99.90;;;;;;4985910;28;20290;-83
2022/04/02 00:05:48;;;;;;;0.10;0.10;;;1.60;99.90;;;;;;5005352;28;20653;-83
2022/04/02 00:08:14;;;;;;;0.10;0.10;;;1.60;99.90;;;;;;5005333;28;20207;-83
2022/04/02 00:10:39;;;;;;;0.30;0.30;;;1.60;99.90;;;;;;4989653;28;20563;-83
2022/04/02 00:13:05;;;;;;;0.20;0.20;;;1.70;99.90;;;;;;4989591;28;20192;-84
2022/04/02 00:15:30;;;;;;;0.03;0.03;;;1.70;99.90;;;;;;4990325;28;20189;-84
2022/04/02 00:17:56;;;;;;;0.73;0.73;;;1.60;99.90;;;;;;4989922;28;20183;-84
2022/04/02 00:20:22;;;;;;;0.20;0.20;;;1.60;99.90;;;;;;4990191;28;20183;-84
2022/04/02 00:25:32;;;;;;;0.30;0.30;;;1.60;99.90;;;;;;4991036;28;20218;-84
2022/04/02 00:27:57;;;;;;;0.20;0.20;;;1.60;99.90;;;;;;4990108;28;20201;-84
2022/04/02 00:30:23;;;;;;;0.40;0.40;;;1.60;99.90;;;;;;4990860;28;20179;-83
2022/04/02 00:32:48;;;;;;;0.27;0.27;;;1.60;99.90;;;;;;4988782;28;20211;-84
2022/04/02 00:35:14;;;;;;;0.10;0.10;;;1.50;99.90;;;;;;4989773;28;20219;-84
2022/04/02 00:37:40;;;;;;;0.23;0.23;;;1.50;99.90;;;;;;4988849;28;20271;-84
2022/04/02 00:40:07;;;;;;;0.10;0.10;;;1.50;99.90;;;;;;4981800;28;20202;-84
2022/04/02 00:42:33;;;;;;;0.30;0.20;;;1.50;99.90;;;;;;4988989;28;20218;-83
2022/04/02 00:44:58;;;;;;;0.10;0.10;;;1.50;99.90;;;;;;4990244;28;20223;-83
2022/04/02 00:47:24;;;;;;;0.10;0.10;;;1.50;99.90;;;;;;4981470;28;20641;-83
2022/04/02 00:49:51;;;;;;;0.20;0.20;;;1.50;99.90;;;;;;4990377;28;20239;-83
2022/04/02 00:52:18;;;;;;;0.20;0.20;;;1.40;99.90;;;;;;4988973;28;20192;-84
2022/04/02 00:54:44;;;;;;;0.30;0.30;;;1.40;99.90;;;;;;4987894;28;20227;-84
2022/04/02 00:57:09;;;;;;;0.13;0.13;;;1.40;99.90;;;;;;4988811;28;20187;-83
2022/04/02 00:59:35;;;;;;;1.60;0.40;;;1.20;99.90;;;;;;4989320;28;20672;-84
2022/04/02 01:02:01;;;;;;;0.40;0.20;;;1.20;99.90;;;;;;4988767;28;20335;-84
2022/04/02 01:04:27;;;;;;;0.10;0.10;;;1.10;99.90;;;;;;4988137;28;20208;-83
2022/04/02 01:06:53;;;;;;;0.20;0.20;;;1.00;99.90;;;;;;4989279;28;20771;-83
2022/04/02 01:09:19;;;;;;;0.00;0.00;;;1.10;99.90;;;;;;4981938;28;20183;-83
2022/04/02 01:11:45;;;;;;;0.00;0.00;;;1.00;99.90;;;;;;4989273;28;20202;-83
2022/04/02 01:14:11;;;;;;;0.30;0.30;;;0.90;99.90;;;;;;4988080;28;20672;-83
2022/04/02 01:16:38;;;;;;;0.20;0.20;;;0.90;99.90;;;;;;4988457;28;20245;-84
2022/04/02 01:19:05;;;;;;;0.57;0.57;;;0.90;99.90;;;;;;4989008;28;20196;-83
2022/04/02 01:21:32;;;;;;;0.93;0.40;;;0.90;99.90;;;;;;4988652;28;20207;-83
2022/04/02 01:23:58;;;;;;;0.10;0.10;;;0.90;99.90;;;;;;4988255;28;20672;-84
2022/04/02 01:26:25;;;;;;;0.57;0.57;;;0.90;99.90;;;;;;4988672;28;20222;-83
2022/04/02 01:28:54;;;;;;;0.00;0.00;;;0.80;99.90;;;;;;4988819;28;20271;-84
2022/04/02 01:31:21;;;;;;;0.10;0.10;;;0.80;99.90;;;;;;5004559;28;20260;-84
2022/04/02 01:33:50;;;;;;;0.10;0.10;;;0.70;99.90;;;;;;4987728;28;20216;-84
2022/04/02 01:36:16;;;;;;;0.20;0.20;;;0.70;99.90;;;;;;4988405;28;20203;-84
2022/04/02 01:38:42;;;;;;;0.30;0.30;;;0.70;99.90;;;;;;4988109;28;20256;-84
2022/04/02 01:41:08;;;;;;;0.10;0.10;;;0.70;99.90;;;;;;4988451;28;20223;-84
2022/04/02 01:43:34;;;;;;;0.37;0.37;;;0.70;99.90;;;;;;4987480;28;20211;-84
2022/04/02 01:46:01;;;;;;;2.73;1.90;;;0.70;99.90;;;;;;4988552;28;20192;-84
2022/04/02 01:48:27;;;;;;;0.10;0.10;;;0.90;99.90;;;;;;4989646;28;20209;-82
2022/04/02 01:50:53;;;;;;;0.10;0.10;;;0.90;99.90;;;;;;4988722;28;20676;-84
2022/04/02 01:53:20;;;;;;;0.10;0.10;;;1.00;99.90;;;;;;4989123;28;20534;-84
2022/04/02 01:55:45;;;;;;;0.00;0.00;;;1.00;99.90;;;;;;4989952;28;20191;-83
2022/04/02 01:58:11;;;;;;;0.77;0.30;;;1.00;99.90;;;;;;4990553;28;20195;-83
2022/04/02 02:00:37;;;;;;;0.10;0.10;;;1.00;99.90;;;;;;5004236;28;20203;-83
2022/04/02 02:03:03;;;;;;;0.63;0.63;;;1.00;99.90;;;;;;4987249;28;21011;-84
2022/04/02 02:05:29;;;;;;;0.30;0.30;;;1.10;99.90;;;;;;4988824;28;20214;-84
2022/04/02 02:07:54;;;;;;;0.10;0.10;;;1.10;99.90;;;;;;4988200;28;20211;-84
2022/04/02 02:10:21;;;;;;;0.77;0.67;;;1.10;99.90;;;;;;4987469;28;20532;-84
2022/04/02 02:12:46;;;;;;;0.20;0.20;;;1.10;99.90;;;;;;4986956;28;20184;-83
2022/04/02 02:15:22;;;;;;;0.30;0.30;;;1.10;99.90;;;;;;4987311;28;20746;-84
2022/04/02 02:17:48;;;;;;;0.13;0.13;;;1.10;99.90;;;;;;4988509;28;20188;-83
2022/04/02 02:20:15;;;;;;;0.33;0.33;;;1.20;99.90;;;;;;5003934;28;20184;-84
2022/04/02 02:22:42;;;;;;;0.10;0.10;;;1.10;99.90;;;;;;4988763;28;20942;-84
2022/04/02 02:25:09;;;;;;;1.20;0.30;;;1.10;99.90;;;;;;4987769;28;20203;-84
2022/04/02 02:27:35;;;;;;;0.00;0.00;;;1.10;99.90;;;;;;4985642;28;20206;-84
2022/04/02 02:30:03;;;;;;;1.20;0.60;;;1.10;99.90;;;;;;4987422;28;20191;-84
2022/04/02 02:32:31;;;;;;;0.10;0.10;;;1.10;99.90;;;;;;4988604;28;20183;-84
2022/04/02 02:37:42;;;;;;;0.10;0.10;;;1.20;99.90;;;;;;4988682;28;20183;-83
2022/04/02 02:40:09;;;;;;;0.23;0.23;;;1.20;99.90;;;;;;5003828;28;20298;-83
2022/04/02 02:42:34;;;;;;;0.77;0.10;;;1.10;99.90;;;;;;4987441;28;20688;-84
2022/04/02 02:45:00;;;;;;;0.20;0.20;;;1.10;99.90;;;;;;4988897;28;20261;-84
2022/04/02 02:47:26;;;;;;;0.10;0.10;;;1.00;99.90;;;;;;4986617;28;20237;-83
2022/04/02 02:49:51;;;;;;;0.13;0.13;;;1.00;99.90;;;;;;4985746;28;20183;-84
2022/04/02 02:52:17;;;;;;;0.87;0.63;;;1.00;99.90;;;;;;4986908;28;20199;-84
2022/04/02 02:54:42;;;;;;;0.17;0.17;;;1.00;99.90;;;;;;4985768;28;20214;-84
2022/04/02 02:57:08;;;;;;;0.03;0.03;;;1.00;99.90;;;;;;4986370;28;20222;-84
2022/04/02 02:59:35;;;;;;;0.10;0.10;;;1.00;99.90;;;;;;4988229;28;20319;-83
2022/04/02 03:02:01;;;;;;;0.00;0.00;;;0.90;99.90;;;;;;4988874;28;20290;-83
2022/04/02 03:04:26;;;;;;;0.20;0.20;;;0.90;99.90;;;;;;4987904;28;20346;-85
2022/04/02 03:06:52;;;;;;;0.73;0.40;;;0.80;99.90;;;;;;4985538;28;20196;-83
2022/04/02 03:09:17;;;;;;;0.07;0.07;;;0.90;99.90;;;;;;4985805;28;20874;-84
2022/04/02 03:11:43;;;;;;;0.10;0.10;;;0.90;99.90;;;;;;4987230;28;20219;-83
2022/04/02 03:14:09;;;;;;;0.13;0.13;;;0.80;99.90;;;;;;5002280;28;20684;-82
2022/04/02 03:16:35;;;;;;;0.23;0.23;;;0.90;99.90;;;;;;4986708;28;20206;-83
2022/04/02 03:19:02;;;;;;;0.10;0.10;;;0.90;99.90;;;;;;4987452;28;20190;-83
2022/04/02 03:21:28;;;;;;;0.10;0.10;;;0.80;99.90;;;;;;4986286;28;20630;-83
2022/04/02 03:23:54;;;;;;;0.13;0.13;;;0.80;99.90;;;;;;5002645;28;20210;-83
2022/04/02 03:26:21;;;;;;;0.20;0.20;;;0.80;99.90;;;;;;5002411;28;20649;-83
2022/04/02 03:28:46;;;;;;;0.10;0.10;;;0.80;99.90;;;;;;4986270;28;20179;-84
2022/04/02 03:31:13;;;;;;;0.10;0.10;;;0.70;99.90;;;;;;4987255;28;20183;-83
2022/04/02 03:33:38;;;;;;;6.00;0.87;;;0.80;99.90;;;;;;4985978;28;20694;-84
2022/04/02 03:36:04;;;;;;;0.10;0.10;;;0.80;99.90;;;;;;5002737;28;20212;-83
2022/04/02 03:38:30;;;;;;;0.20;0.20;;;0.80;99.90;;;;;;4985659;28;20179;-83
2022/04/02 03:40:56;;;;;;;0.17;0.17;;;0.90;99.90;;;;;;4987625;28;20218;-84
2022/04/02 03:43:22;;;;;;;0.20;0.20;;;0.80;99.90;;;;;;4985716;28;20175;-84
2022/04/02 03:45:47;;;;;;;0.20;0.20;;;0.90;99.90;;;;;;4986192;28;20171;-83
2022/04/02 03:48:13;;;;;;;0.10;0.10;;;0.80;99.90;;;;;;4986014;28;20188;-83
2022/04/02 03:50:38;;;;;;;0.23;0.23;;;0.80;99.90;;;;;;4986104;28;20521;-84
2022/04/02 03:53:04;;;;;;;0.20;0.20;;;0.90;99.90;;;;;;4986443;28;20298;-84
2022/04/02 03:55:30;;;;;;;0.10;0.10;;;0.80;99.90;;;;;;4986143;28;20183;-83
2022/04/02 03:57:56;;;;;;;0.10;0.10;;;0.80;99.90;;;;;;4985920;28;20206;-82
2022/04/02 04:00:22;;;;;;;0.40;0.40;;;0.90;99.90;;;;;;4986375;28;20660;-83
2022/04/02 04:02:48;;;;;;;0.10;0.10;;;1.00;99.90;;;;;;4985409;28;20290;-83
2022/04/02 04:05:13;;;;;;;0.80;0.13;;;1.00;99.90;;;;;;5002316;28;20227;-83
2022/04/02 04:07:39;;;;;;;0.30;0.30;;;1.00;99.90;;;;;;4985228;28;20613;-83
2022/04/02 04:10:06;;;;;;;0.20;0.20;;;1.00;99.90;;;;;;4986218;28;20275;-83
2022/04/02 04:12:32;;;;;;;0.10;0.10;;;0.90;99.90;;;;;;4984446;28;20654;-83
2022/04/02 04:14:58;;;;;;;0.10;0.10;;;0.90;99.90;;;;;;5001380;28;20207;-83
2022/04/02 04:17:23;;;;;;;0.10;0.10;;;0.90;99.90;;;;;;4984649;28;20265;-83
2022/04/02 04:19:50;;;;;;;0.63;0.40;;;1.00;99.90;;;;;;4985295;28;20191;-83
2022/04/02 04:22:17;;;;;;;0.17;0.17;;;1.00;99.90;;;;;;4985513;28;20680;-83
2022/04/02 04:24:42;;;;;;;9.33;0.50;;;0.90;99.90;;;;;;4977156;28;20214;-84
2022/04/02 04:27:08;;;;;;;0.30;0.20;;;1.00;99.90;;;;;;4986313;28;20184;-84
2022/04/02 04:29:35;;;;;;;0.20;0.20;;;0.90;99.90;;;;;;4987106;28;20180;-84
2022/04/02 04:32:00;;;;;;;0.10;0.10;;;0.90;99.90;;;;;;4985951;28;20188;-83
2022/04/02 04:34:26;;;;;;;0.20;0.20;;;0.90;99.90;;;;;;4977529;28;20200;-84
2022/04/02 04:36:51;;;;;;;0.10;0.10;;;0.80;99.90;;;;;;4985788;28;20275;-84
2022/04/02 04:39:17;;;;;;;0.10;0.10;;;0.80;99.90;;;;;;4986057;28;20205;-83
2022/04/02 04:41:43;;;;;;;0.10;0.10;;;0.70;99.90;;;;;;4985182;28;20208;-84
2022/04/02 04:44:08;;;;;;;0.20;0.20;;;0.70;99.90;;;;;;4994911;28;20212;-83
2022/04/02 04:46:34;;;;;;;0.20;0.20;;;0.60;99.90;;;;;;4983163;28;20246;-83
2022/04/02 04:48:59;;;;;;;0.30;0.30;;;0.50;99.90;;;;;;4984328;28;20194;-80
2022/04/02 04:51:25;;;;;;;0.30;0.30;;;0.60;99.90;;;;;;4981362;28;20720;-80
2022/04/02 04:53:51;;;;;;;0.20;0.20;;;0.50;99.90;;;;;;4987030;28;20221;-79
2022/04/02 04:56:17;;;;;;;0.57;0.57;;;0.40;99.90;;;;;;4985186;28;20218;-78
2022/04/02 04:58:42;;;;;;;0.20;0.20;;;0.30;99.90;;;;;;5004274;28;20243;-81
2022/04/02 05:01:12;;;;;;;0.20;0.20;;;0.30;99.90;;;;;;4990418;28;20224;-80
2022/04/02 05:03:39;;;;;;;0.10;0.10;;;0.30;99.90;;;;;;4989176;28;20211;-80
2022/04/02 05:06:09;;;;;;;0.37;0.37;;;0.30;99.90;;;;;;4989231;28;20578;-80
2022/04/02 05:08:35;;;;;;;0.10;0.10;;;0.30;99.90;;;;;;4990273;28;20184;-80
2022/04/02 05:11:01;;;;;;;0.20;0.20;;;0.30;99.90;;;;;;4990067;28;20210;-80
2022/04/02 05:13:27;;;;;;;0.10;0.10;;;0.30;99.90;;;;;;4988986;28;20208;-80
2022/04/02 05:15:52;;;;;;;1.23;1.13;;;0.30;99.90;;;;;;4990743;28;20194;-80
2022/04/02 05:18:18;;;;;;;0.30;0.30;;;0.30;99.90;;;;;;4989173;28;20195;-81
2022/04/02 05:20:43;;;;;;;0.23;0.20;;;0.30;99.90;;;;;;4989785;28;20259;-80
2022/04/02 05:23:09;;;;;;;0.37;0.30;;;0.30;99.90;;;;;;4989231;28;20200;-80
2022/04/02 05:25:35;;;;;;;0.20;0.20;;;0.30;99.90;;;;;;4989478;28;20180;-81
2022/04/02 05:28:05;;;;;;;0.30;0.30;;;0.40;99.90;;;;;;5005334;28;20195;-80
2022/04/02 05:30:31;;;;;;;0.10;0.10;;;0.40;99.90;;;;;;4990222;28;20180;-80
2022/04/02 05:32:57;;;;;;;0.20;0.13;;;0.40;99.90;;;;;;4988738;28;20184;-80
2022/04/02 05:35:22;;;;;;;0.73;0.40;;;0.40;99.90;;;;;;4990484;28;20242;-80
2022/04/02 05:37:49;;;;;;;0.63;0.20;;;0.40;99.90;;;;;;4988427;28;20184;-80
2022/04/02 05:40:15;;;;;;;0.10;0.10;;;0.40;99.90;;;;;;4988992;28;20184;-80
2022/04/02 05:42:41;;;;;;;0.17;0.17;;;0.30;99.90;;;;;;4990888;28;20266;-80
2022/04/02 05:45:07;;;;;;;0.00;0.00;;;0.30;99.90;;;;;;4988395;28;20211;-80
2022/04/02 05:47:46;;;;;;;0.20;0.20;;;0.30;99.90;;;;;;4989831;28;20188;-80
2022/04/02 05:50:13;;;;;;;0.30;0.30;;;0.30;99.90;;;;;;4989022;28;20217;-80
2022/04/02 05:52:39;;;;;;;0.20;0.20;;;0.30;99.90;;;;;;5003154;28;20239;-80
2022/04/02 05:55:10;;;;;;;0.30;0.30;;;0.20;99.90;;;;;;4984910;28;20216;-80
2022/04/02 05:57:37;;;;;;;0.10;0.10;;;0.30;99.90;;;;;;4987751;28;20191;-80
2022/04/02 06:00:05;;;;;;;0.20;0.20;;;0.20;99.90;;;;;;4986082;28;20192;-80
2022/04/02 06:02:31;;;;;;;0.17;0.17;;;0.30;99.90;;;;;;4987169;28;20738;-80
2022/04/02 06:04:57;;;;;;;0.27;0.27;;;0.20;99.90;;;;;;4986473;28;20210;-80
2022/04/02 06:07:23;;;;;;;0.47;0.47;;;0.20;99.90;;;;;;4988337;28;20200;-80
2022/04/02 06:09:48;;;;;;;0.10;0.10;;;0.30;99.90;;;;;;4987446;28;20192;-80
2022/04/02 06:12:14;;;;;;;0.30;0.30;;;0.30;99.90;;;;;;4986268;28;20191;-80
2022/04/02 06:14:39;;;;;;;0.20;0.20;;;0.40;99.90;;;;;;4988412;28;20238;-80
2022/04/02 06:17:05;;;;;;;0.13;0.13;;;0.50;99.90;;;;;;4987425;28;20198;-80
2022/04/02 06:19:30;;;;;;;0.10;0.10;;;0.50;99.90;;;;;;4987382;28;20183;-80
2022/04/02 06:21:56;;;;;;;0.47;0.47;;;0.50;99.90;;;;;;4985867;28;20262;-80
2022/04/02 06:24:21;;;;;;;0.30;0.30;;;0.40;99.90;;;;;;4986511;28;20211;-80
2022/04/02 06:26:47;;;;;;;0.30;0.30;;;0.40;99.90;;;;;;4986671;28;20187;-80
2022/04/02 06:29:12;;;;;;;0.23;0.23;;;0.50;99.90;;;;;;4984722;28;20242;-80
2022/04/02 06:31:39;;;;;;;0.10;0.10;;;0.60;99.90;;;;;;4986018;28;20279;-81
2022/04/02 06:34:05;;;;;;;0.20;0.20;;;0.50;99.90;;;;;;4984669;28;20306;-80
2022/04/02 06:36:30;;;;;;;0.40;0.40;;;0.60;99.90;;;;;;5003058;28;20200;-80
2022/04/02 06:38:56;;;;;;;0.17;0.17;;;0.60;99.90;;;;;;4987746;28;20188;-80
2022/04/02 06:41:22;;;;;;;0.10;0.10;;;0.70;99.90;;;;;;4988001;28;20199;-80
2022/04/02 06:43:48;;;;;;;0.43;0.43;;;0.70;99.90;;;;;;4987746;28;20577;-80
2022/04/02 06:46:14;;;;;;;0.20;0.20;;;0.60;99.90;;;;;;4986525;28;20198;-80
2022/04/02 06:48:39;;;;;;;0.23;0.23;;;0.60;99.90;;;;;;5001569;28;20183;-80
2022/04/02 06:51:07;;;;;;;0.17;0.17;;;0.60;99.90;;;;;;4985574;28;21137;-82
2022/04/02 06:53:33;;;;;;;0.53;0.53;;;0.70;99.90;;;;;;4994151;28;20741;-80
2022/04/02 06:55:59;;;;;;;0.30;0.10;;;0.80;99.90;;;;;;4983956;28;20237;-81
2022/04/02 06:58:32;;;;;;;0.20;0.20;;;0.90;99.90;;;;;;4984824;28;20879;-83
2022/04/02 07:00:57;;;;;;;0.10;0.10;;;1.00;99.90;;;;;;4999113;28;20282;-81
2022/04/02 07:03:23;;;;;;;0.20;0.20;;;1.10;99.90;;;;;;4984093;28;20196;-81
2022/04/02 07:05:49;;;;;;;0.23;0.23;;;1.00;99.90;;;;;;4982444;28;20184;-82
2022/04/02 07:08:15;;;;;;;0.20;0.20;;;1.00;99.90;;;;;;4985385;28;20189;-80
2022/04/02 07:10:40;;;;;;;0.10;0.10;;;1.10;99.90;;;;;;4984525;28;20195;-80
2022/04/02 07:13:06;;;;;;;0.13;0.13;;;1.10;99.90;;;;;;4984445;28;20195;-80
2022/04/02 07:15:31;;;;;;;0.10;0.10;;;1.00;99.90;;;;;;4987039;28;20287;-79
2022/04/02 07:18:06;;;;;;;0.37;0.30;;;1.20;99.90;;;;;;4985337;28;20190;-79
2022/04/02 07:20:34;;;;;;;0.10;0.10;;;1.20;99.90;;;;;;4987025;28;20199;-80
2022/04/02 07:23:02;;;;;;;0.30;0.30;;;1.20;99.90;;;;;;4987000;28;20194;-80
2022/04/02 07:25:34;;;;;;;0.00;0.00;;;1.10;99.90;;;;;;4986060;28;20630;-80
2022/04/02 07:28:01;;;;;;;0.10;0.10;;;1.40;99.90;;;;;;4986995;28;20172;-80
2022/04/02 07:30:27;;;;;;;0.27;0.27;;;1.40;99.90;;;;;;4984983;28;20272;-80
2022/04/02 07:32:52;;;;;;;0.33;0.33;;;1.10;99.90;;;;;;4985533;28;20219;-79
2022/04/02 07:35:19;;;;;;;1.03;0.50;;;1.20;99.90;;;;;;4985696;28;20216;-80
2022/04/02 07:37:58;;;;;;;0.00;0.00;;;1.20;99.90;;;;;;4986743;28;20554;-80
2022/04/02 07:40:28;;;;;;;0.30;0.30;;;1.40;99.90;;;;;;4986346;28;20179;-80
2022/04/02 07:43:32;;;;;;;0.17;0.17;;;1.30;99.90;;;;;;4984360;28;20226;-80
2022/04/02 07:46:05;;;;;;;0.30;0.30;;;1.20;99.90;;;;;;4949348;28;21004;-80
2022/04/02 07:48:32;;;;;;;0.20;0.20;;;1.40;99.90;;;;;;4987066;28;20170;-80
2022/04/02 07:51:03;;;;;;;0.30;0.30;;;1.40;99.90;;;;;;4986168;28;20294;-79
2022/04/02 07:53:34;;;;;;;0.10;0.10;;;1.30;99.90;;;;;;4984525;28;20247;-80
2022/04/02 07:56:03;;;;;;;0.10;0.10;;;1.50;99.90;;;;;;4985824;28;20188;-80
2022/04/02 07:58:32;;;;;;;0.10;0.10;;;1.60;99.90;;;;;;4984252;28;20241;-80
2022/04/02 08:01:02;;;;;;;7.67;0.30;;;1.50;99.90;;;;;;4983547;28;20265;-79
2022/04/02 08:03:30;;;;;;;0.10;0.10;;;1.70;99.90;;;;;;4977665;28;20251;-79
2022/04/02 08:05:56;;;;;;;0.90;0.60;;;1.50;99.90;;;;;;4979408;28;20189;-81
2022/04/02 08:08:25;;;;;;;0.10;0.10;;;1.50;99.90;;;;;;4982213;28;20265;-81
2022/04/02 08:10:55;;;;;;;0.37;0.20;;;1.50;99.90;;;;;;4981241;28;20196;-81
2022/04/02 08:13:22;;;;;;;0.10;0.10;;;1.40;99.90;;;;;;4983296;28;20191;-81
2022/04/02 08:15:51;;;;;;;0.20;0.20;;;1.50;99.90;;;;;;4985051;28;20221;-80
2022/04/02 08:18:21;;;;;;;0.10;0.10;;;1.60;99.90;;;;;;4986311;28;20180;-80
2022/04/02 08:20:49;;;;;;;0.20;0.20;;;1.50;99.90;;;;;;4986004;28;21578;-80
2022/04/02 08:23:14;;;;;;;0.10;0.10;;;1.60;99.90;;;;;;4985785;28;21007;-80
2022/04/02 08:25:47;;;;;;;0.87;0.70;;;1.60;99.90;;;;;;4988421;28;20218;-81
2022/04/02 08:28:18;;;;;;;0.17;0.17;;;1.70;99.90;;;;;;4989864;28;20812;-81
2022/04/02 08:31:06;;;;;;;0.20;0.20;;;1.90;99.90;;;;;;4984617;28;20188;-81
2022/04/02 08:33:51;;;;;;;0.20;0.20;;;2.00;99.90;;;;;;4992477;28;20206;-81
2022/04/02 08:36:27;;;;;;;0.30;0.30;;;2.10;99.90;;;;;;4986880;28;20743;-81
2022/04/02 08:39:30;;;;;;;0.10;0.10;;;2.20;99.90;;;;;;4992510;28;20182;-82
2022/04/02 08:42:19;;;;;;;0.40;0.10;;;2.20;99.90;;;;;;4958430;28;21112;-80
2022/04/02 08:45:04;;;;;;;0.30;0.20;;;2.40;99.90;;;;;;4990711;28;20288;-80
2022/04/02 08:47:35;;;;;;;0.30;0.30;;;2.30;99.90;;;;;;4989717;28;20184;-80
2022/04/02 08:50:10;;;;;;;0.10;0.10;;;2.60;99.90;;;;;;4990731;28;20266;-81
2022/04/02 08:52:54;;;;;;;0.93;0.93;;;2.70;99.90;;;;;;4983585;28;20191;-81
2022/04/02 08:55:35;;;;;;;0.10;0.10;;;2.70;99.90;;;;;;4989408;28;20222;-80
2022/04/02 08:58:08;;;;;;;0.27;0.27;;;3.00;99.90;;;;;;4990231;28;20521;-81
2022/04/02 09:00:44;;;;;;;0.10;0.10;;;2.80;99.90;;;;;;4990725;28;20207;-82
2022/04/02 09:03:38;;;;;;;0.07;0.07;;;2.60;99.90;;;;;;4982161;28;20567;-83
2022/04/02 09:06:13;;;;;;;1.70;1.70;;;2.60;99.90;;;;;;4980748;28;20184;-82
2022/04/02 09:09:03;;;;;;;0.10;0.10;;;2.60;99.90;;;;;;4982442;28;20274;-82
2022/04/02 09:11:56;;;;;;;0.10;0.10;;;2.60;99.90;;;;;;5003022;28;20195;-82
2022/04/02 09:15:11;;;;;;;0.10;0.10;;;2.70;99.90;;;;;;4989572;28;20585;-83
2022/04/02 09:17:48;;;;;;;0.10;0.10;;;3.00;99.90;;;;;;4945585;28;20200;-83
2022/04/02 09:20:29;;;;;;;0.30;0.30;;;3.00;99.90;;;;;;4984706;28;20269;-83
2022/04/02 09:23:11;;;;;;;0.20;0.20;;;3.00;99.90;;;;;;4979899;28;20217;-83
2022/04/02 09:26:18;;;;;;;1.70;0.97;;;3.00;99.90;;;;;;4981573;28;20242;-83
2022/04/02 09:28:46;;;;;;;0.10;0.10;;;3.20;99.90;;;;;;4983224;28;20217;-83
2022/04/02 09:31:32;;;;;;;0.50;0.50;;;3.20;99.90;;;;;;4980147;28;20207;-83
2022/04/02 09:34:00;;;;;;;0.10;0.10;;;3.10;99.90;;;;;;4988174;28;20239;-82
2022/04/02 09:37:03;;;;;;;0.33;0.27;;;3.10;99.90;;;;;;4987329;28;20200;-82
2022/04/02 09:39:34;;;;;;;0.37;0.37;;;3.20;99.90;;;;;;4986906;28;20190;-83
2022/04/02 09:42:21;;;;;;;0.27;0.27;;;3.20;99.90;;;;;;4988915;28;20211;-83
2022/04/02 09:44:58;;;;;;;0.20;0.20;;;3.40;99.90;;;;;;4987143;28;20201;-83
2022/04/02 09:47:50;;;;;;;0.47;0.47;;;3.50;99.90;;;;;;4980236;28;20577;-83
2022/04/02 09:50:18;;;;;;;0.50;0.40;;;3.40;99.90;;;;;;4986945;28;20188;-81
2022/04/02 09:53:09;;;;;;;0.63;0.47;;;3.30;99.90;;;;;;4986145;28;20189;-80
2022/04/02 09:55:45;;;;;;;1.60;0.33;;;3.30;99.90;;;;;;4989073;28;20644;-80
2022/04/02 09:58:31;;;;;;;0.10;0.10;;;3.30;99.90;;;;;;4986382;28;20202;-80
2022/04/02 10:01:06;;;;;;;0.20;0.20;;;3.40;99.90;;;;;;4987278;28;20183;-80
2022/04/02 10:03:38;;;;;;;0.37;0.17;;;3.40;99.90;;;;;;4977002;28;20222;-80
2022/04/02 10:06:22;;;;;;;0.20;0.20;;;3.20;99.90;;;;;;4978177;28;21226;-79
2022/04/02 10:09:17;;;;;;;1.03;0.60;;;3.10;99.90;;;;;;4987920;28;20195;-82
2022/04/02 10:11:47;;;;;;;1.13;0.50;;;3.40;99.90;;;;;;4986685;28;20188;-83
2022/04/02 10:14:22;;;;;;;0.53;0.53;;;3.60;99.90;;;;;;5001829;28;20285;-82
2022/04/02 10:16:55;;;;;;;0.30;0.30;;;3.60;99.90;;;;;;4987359;28;20568;-84
2022/04/02 10:19:40;;;;;;;0.33;0.33;;;3.60;99.90;;;;;;4988505;28;20215;-83
2022/04/02 10:22:07;;;;;;;0.60;0.60;;;3.70;99.90;;;;;;4977660;28;20211;-82
2022/04/02 10:24:41;;;;;;;0.23;0.23;;;4.00;99.90;;;;;;4985623;28;20340;-86
2022/04/02 10:27:10;;;;;;;1.07;0.30;;;3.70;99.90;;;;;;4979377;28;20215;-80
2022/04/02 10:30:00;;;;;;;0.30;0.30;;;3.60;99.90;;;;;;4985760;28;20195;-80
2022/04/02 10:32:49;;;;;;;0.70;0.70;;;3.50;99.90;;;;;;4986412;28;21112;-80
2022/04/02 10:35:15;;;;;;;0.57;0.20;;;3.50;99.90;;;;;;4976470;28;20224;-80
2022/04/02 10:38:04;;;;;;;0.50;0.37;;;4.00;99.90;;;;;;4985486;28;20197;-80
2022/04/02 10:40:32;;;;;;;0.57;0.57;;;4.00;99.90;;;;;;4988683;28;20266;-80
2022/04/02 10:43:06;;;;;;;0.53;0.53;;;3.70;99.90;;;;;;4986475;28;20727;-80
2022/04/02 10:45:36;;;;;;;0.30;0.30;;;3.70;99.90;;;;;;4988359;28;20250;-80
2022/04/02 10:48:13;;;;;;;0.30;0.30;;;3.60;99.90;;;;;;4986533;28;20645;-80
2022/04/02 10:50:41;;;;;;;0.30;0.30;;;3.20;99.90;;;;;;4986354;28;20258;-80
2022/04/02 10:53:10;;;;;;;0.40;0.40;;;3.50;99.90;;;;;;4985958;28;20189;-80
2022/04/02 10:55:43;;;;;;;0.23;0.23;;;3.50;99.90;;;;;;4986607;28;20180;-80
2022/04/02 10:58:11;;;;;;;0.23;0.23;;;3.40;99.90;;;;;;4987461;28;20185;-80
2022/04/02 11:00:43;;;;;;;0.20;0.20;;;3.70;99.90;;;;;;4987042;28;20324;-80
2022/04/02 11:03:28;;;;;;;0.30;0.30;;;3.90;99.90;;;;;;4985101;28;20216;-80
2022/04/02 11:05:53;;;;;;;0.47;0.47;;;4.00;99.90;;;;;;4983400;28;20311;-80
2022/04/02 11:08:22;;;;;;;0.20;0.20;;;4.50;99.90;;;;;;4984441;28;20643;-79
2022/04/02 11:10:48;;;;;;;0.17;0.17;;;4.40;99.90;;;;;;4987394;28;20655;-80
2022/04/02 11:13:27;;;;;;;0.30;0.30;;;4.20;99.90;;;;;;4985032;28;20193;-80
2022/04/02 11:15:53;;;;;;;0.27;0.27;;;4.30;99.90;;;;;;4986538;28;20267;-79
2022/04/02 11:18:19;;;;;;;0.70;0.40;;;4.00;99.90;;;;;;4986776;28;20285;-82
2022/04/02 11:20:47;;;;;;;0.40;0.40;;;4.30;99.90;;;;;;4990285;28;20201;-82
2022/04/02 11:23:16;;;;;;;0.77;0.37;;;4.50;99.90;;;;;;4988668;28;20267;-81
2022/04/02 11:25:52;;;;;;;0.20;0.20;;;4.50;99.90;;;;;;4988265;28;20570;-83
2022/04/02 11:28:20;;;;;;;0.13;0.13;;;4.20;99.90;;;;;;4989579;28;20188;-82
2022/04/02 11:31:01;;;;;;;0.30;0.30;;;4.50;99.90;;;;;;5004434;28;20197;-82
2022/04/02 11:33:27;;;;;;;0.40;0.40;;;4.60;99.90;;;;;;5001329;28;20197;-82
2022/04/02 11:35:55;;;;;;;0.87;0.50;;;4.80;99.90;;;;;;4987987;28;20321;-83
2022/04/02 11:38:25;;;;;;;0.30;0.30;;;4.40;99.90;;;;;;5005018;28;20279;-83
2022/04/02 11:41:02;;;;;;;0.83;0.83;;;4.30;99.90;;;;;;4988168;28;20227;-83
2022/04/02 11:43:33;;;;;;;0.20;0.20;;;4.60;99.90;;;;;;4988853;28;20229;-82
2022/04/02 11:46:01;;;;;;;0.80;0.80;;;4.70;99.90;;;;;;4987326;28;20190;-82
2022/04/02 11:48:31;;;;;;;0.43;0.37;;;4.50;99.90;;;;;;4988341;28;20273;-82
2022/04/02 11:51:10;;;;;;;0.27;0.27;;;4.20;99.90;;;;;;4985694;28;20177;-84
2022/04/02 11:53:37;;;;;;;0.40;0.40;;;3.90;99.90;;;;;;4976361;28;20256;-81
2022/04/02 11:56:20;;;;;;;0.10;0.10;;;4.00;99.90;;;;;;4982756;28;20193;-80
2022/04/02 11:58:46;;;;;;;0.43;0.43;;;4.20;99.90;;;;;;4984590;28;20223;-80
2022/04/02 12:01:14;;;;;;;0.20;0.20;;;4.20;99.90;;;;;;4983954;28;20205;-82
2022/04/02 12:03:41;;;;;;;0.40;0.40;;;4.10;99.90;;;;;;4985739;28;20212;-80
2022/04/02 12:06:11;;;;;;;0.30;0.30;;;4.20;99.90;;;;;;4985567;28;20192;-80
2022/04/02 12:08:41;;;;;;;0.50;0.50;;;4.10;99.90;;;;;;4985348;28;20636;-80
2022/04/02 12:11:10;;;;;;;0.10;0.10;;;4.10;99.90;;;;;;4977071;28;20554;-80
2022/04/02 12:13:36;;;;;;;0.20;0.20;;;4.20;99.90;;;;;;4984611;28;20238;-80
2022/04/02 12:16:13;;;;;;;0.10;0.10;;;4.40;99.90;;;;;;4983271;28;20237;-80
2022/04/02 12:18:57;;;;;;;0.10;0.10;;;4.90;99.90;;;;;;4981622;28;20192;-80
2022/04/02 12:21:34;;;;;;;0.37;0.30;;;4.60;99.90;;;;;;4982691;28;20213;-80
2022/04/02 12:24:02;;;;;;;0.37;0.30;;;4.50;99.90;;;;;;4989589;28;20216;-81
2022/04/02 12:26:28;;;;;;;0.60;0.60;;;4.60;99.90;;;;;;5000218;28;20183;-79
2022/04/02 12:28:58;;;;;;;0.43;0.43;;;4.90;99.90;;;;;;4981457;28;20977;-79
2022/04/02 12:31:27;;;;;;;0.30;0.30;;;5.10;99.90;;;;;;4983400;28;20200;-79
2022/04/02 12:33:54;;;;;;;0.10;0.10;;;5.00;99.90;;;;;;4982370;28;20303;-79
2022/04/02 12:36:34;;;;;;;0.30;0.30;;;4.90;99.90;;;;;;4990564;28;20209;-80
2022/04/02 12:39:03;;;;;;;2.43;0.53;;;5.10;99.90;;;;;;4981861;28;20231;-79
2022/04/02 12:41:28;;;;;;;0.10;0.10;;;5.30;99.90;;;;;;4982674;28;20393;-79
2022/04/02 12:44:06;;;;;;;0.50;0.33;;;5.20;99.90;;;;;;4982390;28;20309;-79
2022/04/02 12:46:32;;;;;;;0.30;0.30;;;5.20;99.90;;;;;;4983980;28;20171;-79
2022/04/02 12:48:58;;;;;;;0.53;0.40;;;5.00;99.90;;;;;;4981724;28;20189;-79
2022/04/02 12:51:25;;;;;;;0.17;0.17;;;4.70;99.90;;;;;;4971999;28;21036;-79
2022/04/02 12:54:01;;;;;;;0.20;0.20;;;4.50;99.90;;;;;;4979498;28;20378;-79
2022/04/02 12:56:28;;;;;;;0.10;0.10;;;4.60;99.90;;;;;;4973909;28;20205;-80
2022/04/02 12:58:55;;;;;;;0.77;0.77;;;4.60;99.90;;;;;;4983872;28;20748;-79
2022/04/02 13:01:30;;;;;;;0.10;0.10;;;4.80;99.90;;;;;;4983435;28;20217;-79
2022/04/02 13:04:02;;;;;;;0.43;0.30;;;5.10;99.90;;;;;;4983589;28;20201;-80
2022/04/02 13:06:29;;;;;;;0.10;0.10;;;5.10;99.90;;;;;;4975028;28;20301;-79
2022/04/02 13:09:05;;;;;;;0.43;0.43;;;4.90;99.90;;;;;;4983391;28;20194;-80
2022/04/02 13:11:57;;;;;;;0.77;0.77;;;5.10;99.90;;;;;;4985721;28;20243;-79
2022/04/02 13:14:25;;;;;;;0.30;0.30;;;5.10;99.90;;;;;;4994052;28;20217;-79
2022/04/02 13:16:54;;;;;;;1.50;0.60;;;4.90;99.90;;;;;;5001649;28;20194;-79